sensor_id;sensor_type;location;lat;lon;timestamp;pressure;altitude;pressure_sealevel;temperature;humidity
10079;BME280;5078;42.544;22.966;2023-05-12T00:00:36;94065.34;;;10.30;100.00
10079;BME280;5078;42.544;22.966;2023-05-12T00:03:03;94073.31;;;10.30;100.00
10079;BME280;5078;42.544;22.966;2023-05-12T00:05:30;94069.84;;;10.30;100.00
10079;BME280;5078;42.544;22.966;2023-05-12T00:07:57;94074.47;;;10.28;100.00
10079;BME280;5078;42.544;22.966;2023-05-12T00:10:25;94067.19;;;10.22;100.00
10079;BME280;5078;42.544;22.966;2023-05-12T00:12:52;94065.66;;;10.27;100.00
10079;BME280;5078;42.544;22.966;2023-05-12T00:15:21;94063.19;;;10.18;100.00
10079;BME280;5078;42.544;22.966;2023-05-12T00:17:48;94067.00;;;10.23;100.00
10079;BME280;5078;42.544;22.966;2023-05-12T00:20:16;94064.53;;;10.30;100.00
10079;BME280;5078;42.544;22.966;2023-05-12T00:22:43;94068.00;;;10.22;100.00
10079;BME280;5078;42.544;22.966;2023-05-12T00:25:10;94057.59;;;10.29;100.00
10079;BME280;5078;42.544;22.966;2023-05-12T00:27:37;94069.16;;;10.20;100.00
10079;BME280;5078;42.544;22.966;2023-05-12T00:30:05;94061.56;;;10.00;100.00
10079;BME280;5078;42.544;22.966;2023-05-12T00:32:33;94058.94;;;9.92;100.00
10079;BME280;5078;42.544;22.966;2023-05-12T00:35:00;94060.41;;;10.11;100.00
10079;BME280;5078;42.544;22.966;2023-05-12T00:37:28;94061.72;;;10.15;100.00
10079;BME280;5078;42.544;22.966;2023-05-12T00:39:54;94053.63;;;10.00;100.00
10079;BME280;5078;42.544;22.966;2023-05-12T00:42:21;94055.59;;;9.98;100.00
10079;BME280;5078;42.544;22.966;2023-05-12T00:44:49;94063.06;;;10.11;100.00
10079;BME280;5078;42.544;22.966;2023-05-12T00:47:16;94059.94;;;9.99;100.00
10079;BME280;5078;42.544;22.966;2023-05-12T00:52:28;94064.72;;;9.96;100.00
10079;BME280;5078;42.544;22.966;2023-05-12T00:54:56;94066.22;;;9.90;100.00
10079;BME280;5078;42.544;22.966;2023-05-12T00:57:24;94066.88;;;9.67;100.00
10079;BME280;5078;42.544;22.966;2023-05-12T00:59:52;94066.19;;;9.24;100.00
10079;BME280;5078;42.544;22.966;2023-05-12T01:02:19;94066.03;;;9.42;100.00
10079;BME280;5078;42.544;22.966;2023-05-12T01:04:46;94072.09;;;9.18;100.00
10079;BME280;5078;42.544;22.966;2023-05-12T01:07:17;94072.47;;;9.40;100.00
10079;BME280;5078;42.544;22.966;2023-05-12T01:09:46;94067.84;;;9.58;100.00
10079;BME280;5078;42.544;22.966;2023-05-12T01:12:12;94070.50;;;9.58;100.00
10079;BME280;5078;42.544;22.966;2023-05-12T01:14:40;94066.88;;;9.76;100.00
10079;BME280;5078;42.544;22.966;2023-05-12T01:17:10;94056.94;;;9.86;100.00
10079;BME280;5078;42.544;22.966;2023-05-12T01:19:40;94064.91;;;9.94;100.00
10079;BME280;5078;42.544;22.966;2023-05-12T01:22:07;94070.03;;;10.04;100.00
10079;BME280;5078;42.544;22.966;2023-05-12T01:24:37;94060.59;;;10.01;100.00
10079;BME280;5078;42.544;22.966;2023-05-12T01:27:09;94066.72;;;10.02;100.00
10079;BME280;5078;42.544;22.966;2023-05-12T01:29:37;94073.31;;;9.98;100.00
10079;BME280;5078;42.544;22.966;2023-05-12T01:32:05;94068.22;;;9.96;100.00
10079;BME280;5078;42.544;22.966;2023-05-12T01:34:32;94071.69;;;9.88;100.00
10079;BME280;5078;42.544;22.966;2023-05-12T01:37:00;94066.53;;;9.95;100.00
10079;BME280;5078;42.544;22.966;2023-05-12T01:39:27;94066.56;;;9.79;100.00
10079;BME280;5078;42.544;22.966;2023-05-12T01:41:53;94059.91;;;9.83;100.00
10079;BME280;5078;42.544;22.966;2023-05-12T01:44:21;94063.91;;;9.62;100.00
10079;BME280;5078;42.544;22.966;2023-05-12T01:46:48;94051.31;;;9.81;100.00
10079;BME280;5078;42.544;22.966;2023-05-12T01:49:15;94058.94;;;9.84;100.00
10079;BME280;5078;42.544;22.966;2023-05-12T01:51:42;94026.34;;;9.67;100.00
10079;BME280;5078;42.544;22.966;2023-05-12T01:54:08;94037.75;;;9.59;100.00
10079;BME280;5078;42.544;22.966;2023-05-12T01:56:35;94046.03;;;9.56;100.00
10079;BME280;5078;42.544;22.966;2023-05-12T01:59:02;94052.00;;;9.75;100.00
10079;BME280;5078;42.544;22.966;2023-05-12T02:01:30;94052.81;;;9.75;100.00
10079;BME280;5078;42.544;22.966;2023-05-12T02:03:57;94058.94;;;9.51;100.00
10079;BME280;5078;42.544;22.966;2023-05-12T02:06:24;94058.28;;;9.57;100.00
10079;BME280;5078;42.544;22.966;2023-05-12T02:08:51;94060.25;;;9.55;100.00
10079;BME280;5078;42.544;22.966;2023-05-12T02:11:18;94058.72;;;9.20;100.00
10079;BME280;5078;42.544;22.966;2023-05-12T02:13:45;94067.16;;;9.23;100.00
10079;BME280;5078;42.544;22.966;2023-05-12T02:16:12;94061.78;;;8.91;100.00
10079;BME280;5078;42.544;22.966;2023-05-12T02:18:40;94067.13;;;9.07;100.00
10079;BME280;5078;42.544;22.966;2023-05-12T02:21:07;94072.41;;;8.99;100.00
10079;BME280;5078;42.544;22.966;2023-05-12T02:23:34;94070.09;;;9.04;100.00
10079;BME280;5078;42.544;22.966;2023-05-12T02:26:00;94056.41;;;9.09;100.00
10079;BME280;5078;42.544;22.966;2023-05-12T02:28:27;94048.75;;;8.89;100.00
10079;BME280;5078;42.544;22.966;2023-05-12T02:30:54;94068.88;;;8.90;100.00
10079;BME280;5078;42.544;22.966;2023-05-12T02:33:21;94074.97;;;8.82;100.00
10079;BME280;5078;42.544;22.966;2023-05-12T02:35:49;94063.72;;;8.72;100.00
10079;BME280;5078;42.544;22.966;2023-05-12T02:38:16;94051.28;;;8.64;100.00
10079;BME280;5078;42.544;22.966;2023-05-12T02:40:44;94056.66;;;8.20;100.00
10079;BME280;5078;42.544;22.966;2023-05-12T02:43:11;94065.63;;;8.54;100.00
10079;BME280;5078;42.544;22.966;2023-05-12T02:45:38;94074.28;;;8.72;100.00
10079;BME280;5078;42.544;22.966;2023-05-12T02:48:05;94069.06;;;8.89;100.00
10079;BME280;5078;42.544;22.966;2023-05-12T02:50:32;94067.47;;;9.04;100.00
10079;BME280;5078;42.544;22.966;2023-05-12T02:53:00;94074.19;;;8.90;100.00
10079;BME280;5078;42.544;22.966;2023-05-12T02:55:27;94079.03;;;8.60;100.00
10079;BME280;5078;42.544;22.966;2023-05-12T02:57:54;94071.78;;;8.71;100.00
10079;BME280;5078;42.544;22.966;2023-05-12T03:00:21;94079.56;;;8.72;100.00
10079;BME280;5078;42.544;22.966;2023-05-12T03:02:47;94075.94;;;8.73;100.00
10079;BME280;5078;42.544;22.966;2023-05-12T03:05:14;94080.59;;;8.79;100.00
10079;BME280;5078;42.544;22.966;2023-05-12T03:07:41;94081.63;;;8.87;100.00
10079;BME280;5078;42.544;22.966;2023-05-12T03:10:09;94076.50;;;8.51;100.00
10079;BME280;5078;42.544;22.966;2023-05-12T03:12:36;94086.03;;;8.43;100.00
10079;BME280;5078;42.544;22.966;2023-05-12T03:15:03;94094.53;;;8.29;100.00
10079;BME280;5078;42.544;22.966;2023-05-12T03:17:31;94084.22;;;8.18;100.00
10079;BME280;5078;42.544;22.966;2023-05-12T03:19:57;94077.28;;;8.17;100.00
10079;BME280;5078;42.544;22.966;2023-05-12T03:22:24;94092.31;;;8.16;100.00
10079;BME280;5078;42.544;22.966;2023-05-12T03:24:51;94089.06;;;8.31;100.00
10079;BME280;5078;42.544;22.966;2023-05-12T03:27:19;94094.22;;;8.32;100.00
10079;BME280;5078;42.544;22.966;2023-05-12T03:29:46;94094.22;;;8.32;100.00
10079;BME280;5078;42.544;22.966;2023-05-12T03:32:13;94091.44;;;8.16;100.00
10079;BME280;5078;42.544;22.966;2023-05-12T03:34:39;94089.09;;;8.05;100.00
10079;BME280;5078;42.544;22.966;2023-05-12T03:37:06;94092.47;;;8.41;100.00
10079;BME280;5078;42.544;22.966;2023-05-12T03:39:33;94097.31;;;8.28;100.00
10079;BME280;5078;42.544;22.966;2023-05-12T03:42:00;94091.16;;;8.19;100.00
10079;BME280;5078;42.544;22.966;2023-05-12T03:44:28;94093.13;;;8.17;100.00
10079;BME280;5078;42.544;22.966;2023-05-12T03:46:55;94105.91;;;8.04;100.00
10079;BME280;5078;42.544;22.966;2023-05-12T03:49:22;94100.16;;;8.08;100.00
10079;BME280;5078;42.544;22.966;2023-05-12T03:51:48;94100.25;;;7.98;100.00
10079;BME280;5078;42.544;22.966;2023-05-12T03:54:15;94103.00;;;7.89;100.00
10079;BME280;5078;42.544;22.966;2023-05-12T03:56:42;94102.47;;;7.85;100.00
10079;BME280;5078;42.544;22.966;2023-05-12T03:59:08;94098.19;;;7.84;100.00
10079;BME280;5078;42.544;22.966;2023-05-12T04:01:38;94098.50;;;8.07;100.00
10079;BME280;5078;42.544;22.966;2023-05-12T04:04:05;94116.44;;;8.21;100.00
10079;BME280;5078;42.544;22.966;2023-05-12T04:06:31;94110.13;;;8.14;100.00
10079;BME280;5078;42.544;22.966;2023-05-12T04:08:58;94116.25;;;7.97;100.00
10079;BME280;5078;42.544;22.966;2023-05-12T04:11:25;94113.56;;;8.15;100.00
10079;BME280;5078;42.544;22.966;2023-05-12T04:13:52;94117.75;;;7.99;100.00
10079;BME280;5078;42.544;22.966;2023-05-12T04:16:19;94092.88;;;8.02;100.00
10079;BME280;5078;42.544;22.966;2023-05-12T04:18:48;94119.00;;;8.13;100.00
10079;BME280;5078;42.544;22.966;2023-05-12T04:21:14;94124.09;;;8.07;100.00
10079;BME280;5078;42.544;22.966;2023-05-12T04:23:41;94124.94;;;7.53;100.00
10079;BME280;5078;42.544;22.966;2023-05-12T04:26:08;94114.41;;;7.53;100.00
10079;BME280;5078;42.544;22.966;2023-05-12T04:28:35;94114.34;;;7.45;100.00
10079;BME280;5078;42.544;22.966;2023-05-12T04:31:02;94117.50;;;7.49;100.00
10079;BME280;5078;42.544;22.966;2023-05-12T04:33:29;94118.84;;;7.35;100.00
10079;BME280;5078;42.544;22.966;2023-05-12T04:35:58;94120.59;;;7.44;100.00
10079;BME280;5078;42.544;22.966;2023-05-12T04:38:25;94128.88;;;7.49;100.00
10079;BME280;5078;42.544;22.966;2023-05-12T04:40:56;94123.16;;;7.72;100.00
10079;BME280;5078;42.544;22.966;2023-05-12T04:43:23;94126.25;;;7.67;100.00
10079;BME280;5078;42.544;22.966;2023-05-12T04:45:50;94127.00;;;7.77;100.00
10079;BME280;5078;42.544;22.966;2023-05-12T04:48:18;94125.63;;;7.73;100.00
10079;BME280;5078;42.544;22.966;2023-05-12T04:50:45;94117.78;;;7.82;100.00
10079;BME280;5078;42.544;22.966;2023-05-12T04:53:13;94129.84;;;8.02;100.00
10079;BME280;5078;42.544;22.966;2023-05-12T04:55:40;94128.47;;;7.98;100.00
10079;BME280;5078;42.544;22.966;2023-05-12T04:58:07;94127.66;;;7.97;100.00
10079;BME280;5078;42.544;22.966;2023-05-12T05:00:33;94131.44;;;7.77;100.00
10079;BME280;5078;42.544;22.966;2023-05-12T05:03:00;94113.16;;;8.02;100.00
10079;BME280;5078;42.544;22.966;2023-05-12T05:05:28;94132.78;;;7.81;100.00
10079;BME280;5078;42.544;22.966;2023-05-12T05:07:54;94129.13;;;7.74;100.00
10079;BME280;5078;42.544;22.966;2023-05-12T05:10:23;94128.19;;;7.65;100.00
10079;BME280;5078;42.544;22.966;2023-05-12T05:12:50;94132.78;;;7.63;100.00
10079;BME280;5078;42.544;22.966;2023-05-12T05:15:16;94132.97;;;7.62;100.00
10079;BME280;5078;42.544;22.966;2023-05-12T05:17:43;94129.41;;;7.53;100.00
10079;BME280;5078;42.544;22.966;2023-05-12T05:20:13;94135.28;;;7.65;100.00
10079;BME280;5078;42.544;22.966;2023-05-12T05:22:40;94135.00;;;7.50;100.00
10079;BME280;5078;42.544;22.966;2023-05-12T05:25:07;94108.81;;;7.21;100.00
10079;BME280;5078;42.544;22.966;2023-05-12T05:27:36;94140.19;;;7.60;100.00
10079;BME280;5078;42.544;22.966;2023-05-12T05:30:04;94136.44;;;7.62;100.00
10079;BME280;5078;42.544;22.966;2023-05-12T05:32:30;94144.41;;;7.52;100.00
10079;BME280;5078;42.544;22.966;2023-05-12T05:34:57;94138.53;;;7.59;100.00
10079;BME280;5078;42.544;22.966;2023-05-12T05:37:24;94143.59;;;7.70;100.00
10079;BME280;5078;42.544;22.966;2023-05-12T05:39:51;94146.91;;;7.72;100.00
10079;BME280;5078;42.544;22.966;2023-05-12T05:42:18;94148.78;;;7.80;100.00
10079;BME280;5078;42.544;22.966;2023-05-12T05:44:46;94145.47;;;7.42;100.00
10079;BME280;5078;42.544;22.966;2023-05-12T05:47:13;94152.41;;;7.61;100.00
10079;BME280;5078;42.544;22.966;2023-05-12T05:49:39;94151.34;;;7.53;100.00
10079;BME280;5078;42.544;22.966;2023-05-12T05:52:06;94152.03;;;7.55;100.00
10079;BME280;5078;42.544;22.966;2023-05-12T05:54:33;94156.25;;;7.66;100.00
10079;BME280;5078;42.544;22.966;2023-05-12T05:57:00;94154.50;;;7.75;100.00
10079;BME280;5078;42.544;22.966;2023-05-12T05:59:27;94143.13;;;7.74;100.00
10079;BME280;5078;42.544;22.966;2023-05-12T06:01:55;94151.66;;;7.86;100.00
10079;BME280;5078;42.544;22.966;2023-05-12T06:04:22;94153.69;;;7.92;100.00
10079;BME280;5078;42.544;22.966;2023-05-12T06:06:49;94159.09;;;7.91;100.00
10079;BME280;5078;42.544;22.966;2023-05-12T06:09:15;94158.81;;;7.76;100.00
10079;BME280;5078;42.544;22.966;2023-05-12T06:11:42;94161.31;;;7.60;100.00
10079;BME280;5078;42.544;22.966;2023-05-12T06:14:09;94168.97;;;7.71;100.00
10079;BME280;5078;42.544;22.966;2023-05-12T06:16:35;94169.66;;;7.91;100.00
10079;BME280;5078;42.544;22.966;2023-05-12T06:19:03;94172.59;;;8.06;100.00
10079;BME280;5078;42.544;22.966;2023-05-12T06:21:30;94169.88;;;7.97;100.00
10079;BME280;5078;42.544;22.966;2023-05-12T06:23:57;94170.88;;;7.78;100.00
10079;BME280;5078;42.544;22.966;2023-05-12T06:26:24;94168.53;;;7.93;100.00
10079;BME280;5078;42.544;22.966;2023-05-12T06:28:51;94171.34;;;7.92;100.00
10079;BME280;5078;42.544;22.966;2023-05-12T06:31:17;94183.06;;;8.15;100.00
10079;BME280;5078;42.544;22.966;2023-05-12T06:33:44;94178.91;;;8.13;100.00
10079;BME280;5078;42.544;22.966;2023-05-12T06:36:12;94177.03;;;8.05;100.00
10079;BME280;5078;42.544;22.966;2023-05-12T06:38:39;94182.41;;;7.95;100.00
10079;BME280;5078;42.544;22.966;2023-05-12T06:41:06;94178.84;;;8.23;100.00
10079;BME280;5078;42.544;22.966;2023-05-12T06:43:32;94183.88;;;8.34;100.00
10079;BME280;5078;42.544;22.966;2023-05-12T06:45:59;94184.03;;;8.32;100.00
10079;BME280;5078;42.544;22.966;2023-05-12T06:48:26;94179.75;;;8.31;100.00
10079;BME280;5078;42.544;22.966;2023-05-12T06:50:52;94181.75;;;8.37;100.00
10079;BME280;5078;42.544;22.966;2023-05-12T06:53:20;94189.78;;;8.72;100.00
10079;BME280;5078;42.544;22.966;2023-05-12T06:55:47;94181.78;;;8.63;100.00
10079;BME280;5078;42.544;22.966;2023-05-12T06:58:15;94170.06;;;8.66;100.00
10079;BME280;5078;42.544;22.966;2023-05-12T07:00:43;94177.47;;;8.62;100.00
10079;BME280;5078;42.544;22.966;2023-05-12T07:03:10;94181.06;;;8.79;100.00
10079;BME280;5078;42.544;22.966;2023-05-12T07:05:36;94177.47;;;8.89;100.00
10079;BME280;5078;42.544;22.966;2023-05-12T07:08:04;94176.50;;;8.98;100.00
10079;BME280;5078;42.544;22.966;2023-05-12T07:10:32;94178.69;;;9.02;100.00
10079;BME280;5078;42.544;22.966;2023-05-12T07:12:59;94180.63;;;8.92;100.00
10079;BME280;5078;42.544;22.966;2023-05-12T07:15:26;94166.06;;;8.54;100.00
10079;BME280;5078;42.544;22.966;2023-05-12T07:17:53;94166.91;;;8.62;100.00
10079;BME280;5078;42.544;22.966;2023-05-12T07:20:20;94170.81;;;8.76;100.00
10079;BME280;5078;42.544;22.966;2023-05-12T07:22:47;94173.03;;;8.97;100.00
10079;BME280;5078;42.544;22.966;2023-05-12T07:25:13;94166.75;;;8.98;100.00
10079;BME280;5078;42.544;22.966;2023-05-12T07:27:42;94166.25;;;9.29;100.00
10079;BME280;5078;42.544;22.966;2023-05-12T07:30:09;94161.97;;;9.44;100.00
10079;BME280;5078;42.544;22.966;2023-05-12T07:32:36;94157.22;;;9.64;100.00
10079;BME280;5078;42.544;22.966;2023-05-12T07:35:04;94164.38;;;10.05;100.00
10079;BME280;5078;42.544;22.966;2023-05-12T07:37:31;94160.56;;;10.07;100.00
10079;BME280;5078;42.544;22.966;2023-05-12T07:39:57;94161.91;;;10.28;100.00
10079;BME280;5078;42.544;22.966;2023-05-12T07:42:24;94154.28;;;10.49;100.00
10079;BME280;5078;42.544;22.966;2023-05-12T07:44:52;94162.59;;;10.46;100.00
10079;BME280;5078;42.544;22.966;2023-05-12T07:47:19;94147.81;;;10.52;100.00
10079;BME280;5078;42.544;22.966;2023-05-12T07:49:45;94160.41;;;10.50;100.00
10079;BME280;5078;42.544;22.966;2023-05-12T07:52:12;94158.09;;;10.30;100.00
10079;BME280;5078;42.544;22.966;2023-05-12T07:54:39;94154.28;;;10.49;100.00
10079;BME280;5078;42.544;22.966;2023-05-12T07:57:06;94161.75;;;10.38;100.00
10079;BME280;5078;42.544;22.966;2023-05-12T07:59:32;94158.41;;;10.27;100.00
10079;BME280;5078;42.544;22.966;2023-05-12T08:02:00;94152.94;;;10.62;100.00
10079;BME280;5078;42.544;22.966;2023-05-12T08:04:27;94167.22;;;10.28;100.00
10079;BME280;5078;42.544;22.966;2023-05-12T08:06:54;94161.06;;;10.27;100.00
10079;BME280;5078;42.544;22.966;2023-05-12T08:09:20;94164.22;;;10.64;100.00
10079;BME280;5078;42.544;22.966;2023-05-12T08:11:47;94161.59;;;10.39;100.00
10079;BME280;5078;42.544;22.966;2023-05-12T08:14:14;94157.13;;;10.56;100.00
10079;BME280;5078;42.544;22.966;2023-05-12T08:16:41;94165.88;;;10.65;100.00
10079;BME280;5078;42.544;22.966;2023-05-12T08:19:11;94161.56;;;10.14;100.00
10079;BME280;5078;42.544;22.966;2023-05-12T08:21:38;94166.88;;;10.55;100.00
10079;BME280;5078;42.544;22.966;2023-05-12T08:24:05;94167.69;;;10.64;100.00
10079;BME280;5078;42.544;22.966;2023-05-12T08:26:31;94157.88;;;10.81;100.00
10079;BME280;5078;42.544;22.966;2023-05-12T08:28:58;94168.19;;;10.43;100.00
10079;BME280;5078;42.544;22.966;2023-05-12T08:31:26;94162.91;;;10.51;100.00
10079;BME280;5078;42.544;22.966;2023-05-12T08:33:52;94172.22;;;10.31;100.00
10079;BME280;5078;42.544;22.966;2023-05-12T08:36:20;94153.94;;;10.61;100.00
10079;BME280;5078;42.544;22.966;2023-05-12T08:38:47;94166.50;;;10.75;100.00
10079;BME280;5078;42.544;22.966;2023-05-12T08:41:16;94161.28;;;11.06;100.00
10079;BME280;5078;42.544;22.966;2023-05-12T08:43:45;94157.22;;;11.27;100.00
10079;BME280;5078;42.544;22.966;2023-05-12T08:46:15;94170.28;;;11.36;100.00
10079;BME280;5078;42.544;22.966;2023-05-12T08:48:44;94168.81;;;11.34;100.00
10079;BME280;5078;42.544;22.966;2023-05-12T08:51:12;94128.28;;;11.09;100.00
10079;BME280;5078;42.544;22.966;2023-05-12T08:53:41;94167.22;;;11.48;100.00
10079;BME280;5078;42.544;22.966;2023-05-12T08:56:09;94158.31;;;10.93;100.00
10079;BME280;5078;42.544;22.966;2023-05-12T08:58:36;94147.94;;;11.31;100.00
10079;BME280;5078;42.544;22.966;2023-05-12T09:01:04;94164.69;;;11.31;100.00
10079;BME280;5078;42.544;22.966;2023-05-12T09:03:32;94162.50;;;11.35;100.00
10079;BME280;5078;42.544;22.966;2023-05-12T09:05:59;94159.59;;;11.13;100.00
10079;BME280;5078;42.544;22.966;2023-05-12T09:08:28;94135.44;;;11.39;100.00
10079;BME280;5078;42.544;22.966;2023-05-12T09:10:58;94160.94;;;12.03;100.00
10079;BME280;5078;42.544;22.966;2023-05-12T09:13:28;94165.41;;;12.11;100.00
10079;BME280;5078;42.544;22.966;2023-05-12T09:16:00;94168.34;;;11.93;100.00
10079;BME280;5078;42.544;22.966;2023-05-12T09:18:43;94161.19;;;12.16;100.00
10079;BME280;5078;42.544;22.966;2023-05-12T09:21:10;94167.88;;;12.12;100.00
10079;BME280;5078;42.544;22.966;2023-05-12T09:23:37;94167.28;;;12.25;100.00
10079;BME280;5078;42.544;22.966;2023-05-12T09:26:05;94170.22;;;12.07;100.00
10079;BME280;5078;42.544;22.966;2023-05-12T09:28:36;94157.34;;;12.42;100.00
10079;BME280;5078;42.544;22.966;2023-05-12T09:31:13;94170.84;;;12.55;100.00
10079;BME280;5078;42.544;22.966;2023-05-12T09:33:40;94164.19;;;12.36;100.00
10079;BME280;5078;42.544;22.966;2023-05-12T09:36:07;94174.25;;;12.26;100.00
10079;BME280;5078;42.544;22.966;2023-05-12T09:38:34;94170.94;;;12.62;100.00
10079;BME280;5078;42.544;22.966;2023-05-12T09:41:00;94166.03;;;12.73;100.00
10079;BME280;5078;42.544;22.966;2023-05-12T09:43:29;94174.88;;;12.51;100.00
10079;BME280;5078;42.544;22.966;2023-05-12T09:45:55;94160.91;;;11.80;100.00
10079;BME280;5078;42.544;22.966;2023-05-12T09:48:22;94153.22;;;11.62;100.00
10079;BME280;5078;42.544;22.966;2023-05-12T09:50:50;94166.81;;;11.98;100.00
10079;BME280;5078;42.544;22.966;2023-05-12T09:53:18;94166.97;;;11.65;100.00
10079;BME280;5078;42.544;22.966;2023-05-12T09:55:47;94172.00;;;12.15;100.00
10079;BME280;5078;42.544;22.966;2023-05-12T09:58:16;94163.56;;;12.11;100.00
10079;BME280;5078;42.544;22.966;2023-05-12T10:00:45;94173.38;;;12.11;100.00
10079;BME280;5078;42.544;22.966;2023-05-12T10:03:13;94172.19;;;12.13;100.00
10079;BME280;5078;42.544;22.966;2023-05-12T10:05:45;94165.88;;;11.91;100.00
10079;BME280;5078;42.544;22.966;2023-05-12T10:08:17;94168.97;;;12.18;100.00
10079;BME280;5078;42.544;22.966;2023-05-12T10:10:47;94165.44;;;12.25;100.00
10079;BME280;5078;42.544;22.966;2023-05-12T10:13:16;94163.44;;;12.27;100.00
10079;BME280;5078;42.544;22.966;2023-05-12T10:15:45;94164.38;;;12.35;100.00
10079;BME280;5078;42.544;22.966;2023-05-12T10:18:14;94160.47;;;12.60;100.00
10079;BME280;5078;42.544;22.966;2023-05-12T10:20:42;94159.88;;;12.73;100.00
10079;BME280;5078;42.544;22.966;2023-05-12T10:23:11;94156.91;;;12.53;100.00
10079;BME280;5078;42.544;22.966;2023-05-12T10:25:40;94156.38;;;12.87;100.00
10079;BME280;5078;42.544;22.966;2023-05-12T10:28:07;94152.75;;;13.03;100.00
10079;BME280;5078;42.544;22.966;2023-05-12T10:30:34;94147.31;;;13.11;100.00
10079;BME280;5078;42.544;22.966;2023-05-12T10:33:03;94154.06;;;13.73;100.00
10079;BME280;5078;42.544;22.966;2023-05-12T10:35:34;94144.53;;;14.00;100.00
10079;BME280;5078;42.544;22.966;2023-05-12T10:38:04;94144.69;;;13.99;100.00
10079;BME280;5078;42.544;22.966;2023-05-12T10:40:31;94157.69;;;13.87;100.00
10079;BME280;5078;42.544;22.966;2023-05-12T10:42:58;94147.72;;;14.17;100.00
10079;BME280;5078;42.544;22.966;2023-05-12T10:45:26;94138.53;;;14.20;100.00
10079;BME280;5078;42.544;22.966;2023-05-12T10:48:05;94147.59;;;14.47;100.00
10079;BME280;5078;42.544;22.966;2023-05-12T10:50:32;94146.34;;;14.43;100.00
10079;BME280;5078;42.544;22.966;2023-05-12T10:52:59;94153.03;;;14.11;100.00
10079;BME280;5078;42.544;22.966;2023-05-12T10:55:30;94138.34;;;14.43;100.00
10079;BME280;5078;42.544;22.966;2023-05-12T10:58:03;94140.03;;;15.00;100.00
10079;BME280;5078;42.544;22.966;2023-05-12T11:00:31;94148.84;;;15.36;100.00
10079;BME280;5078;42.544;22.966;2023-05-12T11:03:12;94145.75;;;15.73;100.00
10079;BME280;5078;42.544;22.966;2023-05-12T11:05:39;94134.06;;;15.81;100.00
10079;BME280;5078;42.544;22.966;2023-05-12T11:08:06;94140.91;;;16.04;100.00
10079;BME280;5078;42.544;22.966;2023-05-12T11:10:33;94146.66;;;16.07;100.00
10079;BME280;5078;42.544;22.966;2023-05-12T11:13:01;94145.78;;;15.87;100.00
10079;BME280;5078;42.544;22.966;2023-05-12T11:15:29;94144.50;;;15.69;100.00
10079;BME280;5078;42.544;22.966;2023-05-12T11:17:55;94146.91;;;15.58;100.00
10079;BME280;5078;42.544;22.966;2023-05-12T11:20:25;94136.63;;;15.61;100.00
10079;BME280;5078;42.544;22.966;2023-05-12T11:22:52;94152.28;;;15.29;100.00
10079;BME280;5078;42.544;22.966;2023-05-12T11:25:19;94144.28;;;15.23;100.00
10079;BME280;5078;42.544;22.966;2023-05-12T11:27:46;94148.63;;;15.30;100.00
10079;BME280;5078;42.544;22.966;2023-05-12T11:30:14;94150.44;;;15.23;100.00
10079;BME280;5078;42.544;22.966;2023-05-12T11:32:41;94141.03;;;14.99;100.00
10079;BME280;5078;42.544;22.966;2023-05-12T11:35:10;94151.63;;;14.58;100.00
10079;BME280;5078;42.544;22.966;2023-05-12T11:37:39;94144.16;;;14.75;100.00
10079;BME280;5078;42.544;22.966;2023-05-12T11:40:16;94146.38;;;14.71;100.00
10079;BME280;5078;42.544;22.966;2023-05-12T11:42:44;94147.97;;;14.94;100.00
10079;BME280;5078;42.544;22.966;2023-05-12T11:45:24;94151.81;;;14.56;100.00
10079;BME280;5078;42.544;22.966;2023-05-12T11:47:51;94147.91;;;14.80;100.00
10079;BME280;5078;42.544;22.966;2023-05-12T11:50:22;94152.06;;;14.89;100.00
10079;BME280;5078;42.544;22.966;2023-05-12T11:52:51;94146.94;;;14.95;100.00
10079;BME280;5078;42.544;22.966;2023-05-12T11:55:20;94128.91;;;14.97;100.00
10079;BME280;5078;42.544;22.966;2023-05-12T11:57:58;94159.50;;;15.29;100.00
10079;BME280;5078;42.544;22.966;2023-05-12T12:00:33;94149.13;;;15.54;100.00
10079;BME280;5078;42.544;22.966;2023-05-12T12:03:07;94146.47;;;15.54;100.00
10079;BME280;5078;42.544;22.966;2023-05-12T12:05:35;94151.72;;;15.34;100.00
10079;BME280;5078;42.544;22.966;2023-05-12T12:08:08;94156.94;;;15.14;100.00
10079;BME280;5078;42.544;22.966;2023-05-12T12:10:35;94156.69;;;15.44;100.00
10079;BME280;5078;42.544;22.966;2023-05-12T12:13:02;94130.38;;;15.41;100.00
10079;BME280;5078;42.544;22.966;2023-05-12T12:15:29;94140.47;;;15.45;100.00
10079;BME280;5078;42.544;22.966;2023-05-12T12:17:56;94145.53;;;15.34;100.00
10079;BME280;5078;42.544;22.966;2023-05-12T12:20:23;94135.03;;;15.32;100.00
10079;BME280;5078;42.544;22.966;2023-05-12T12:22:51;94140.44;;;15.04;100.00
10079;BME280;5078;42.544;22.966;2023-05-12T12:25:19;94134.16;;;14.55;100.00
10079;BME280;5078;42.544;22.966;2023-05-12T12:27:46;94147.94;;;14.59;100.00
10079;BME280;5078;42.544;22.966;2023-05-12T12:30:14;94123.56;;;14.19;100.00
10079;BME280;5078;42.544;22.966;2023-05-12T12:32:41;94103.03;;;14.41;100.00
10079;BME280;5078;42.544;22.966;2023-05-12T12:35:08;94121.44;;;14.57;100.00
10079;BME280;5078;42.544;22.966;2023-05-12T12:37:36;94127.81;;;14.56;100.00
10079;BME280;5078;42.544;22.966;2023-05-12T12:40:04;94124.81;;;14.66;100.00
10079;BME280;5078;42.544;22.966;2023-05-12T12:42:35;94099.91;;;14.59;100.00
10079;BME280;5078;42.544;22.966;2023-05-12T12:45:03;94120.09;;;14.68;100.00
10079;BME280;5078;42.544;22.966;2023-05-12T12:47:30;94092.28;;;14.56;100.00
10079;BME280;5078;42.544;22.966;2023-05-12T12:49:56;94132.94;;;15.21;100.00
10079;BME280;5078;42.544;22.966;2023-05-12T12:52:24;94130.06;;;15.22;100.00
10079;BME280;5078;42.544;22.966;2023-05-12T12:54:51;94120.91;;;14.69;100.00
10079;BME280;5078;42.544;22.966;2023-05-12T12:57:17;94125.75;;;14.86;100.00
10079;BME280;5078;42.544;22.966;2023-05-12T12:59:47;94115.25;;;15.13;100.00